Highlands Peak, California Weather observations

Data are for observation ending at time listed.
 Day   Time    Ave.   Ave.  Ave.  Vector   Max.   Stn.    Total    Solar   Ave.  
  of    of     Air    Rel.  Wind   Wind    Wind   Baro.  Precip.   Rad.    Soil  
Year   Day     Temp.  Hum.  Speed  Dir.    Gust   Pres.                    Temp. 
2017   (PST)    F      %     mph   deg.    mph     mb.     in.     W/m2     F   
------------------------------------------------------------------------------
  86   12:50   48.4    85   13.5   265     20.2   934.1    0.00     904    55.6
  86   13:00   48.3    85   14.4   265     19.2   934.0    0.00     896    55.9
  86   13:10   48.5    85   14.1   264     19.4   934.0    0.00     918    56.1
  86   13:20   48.7    85   16.4   268     22.5   934.0    0.00     889    56.4
  86   13:30   48.1    86   14.9   266     20.0   934.1    0.00     823    56.8
  86   13:40   48.4    84   13.8   271     18.4   934.1    0.00     867    57.1
  86   13:50   49.1    82   14.0   264     20.3   934.2    0.00     846    57.4
  86   14:00   49.2    81   15.5   269     21.3   934.2    0.00     838    57.6
  86   14:10   49.8    79   13.1   276     19.8   934.4    0.00     819    57.8
  86   14:20   50.3    77   12.6   274     18.1   934.4    0.00     799    58.0
  86   14:30   50.6    72   11.8   281     20.9   934.4    0.00     754    58.3
  86   14:40   50.7    70   12.6   286     21.8   934.5    0.00     750    58.7
  86   14:50   50.6    75   11.1   281     18.9   934.5    0.00     722    58.9
  86   15:00   50.4    76   10.6   273     17.2   934.3    0.00     695    59.2
  86   15:10   50.8    73   11.9   275     19.1   934.1    0.00     658    59.5
  86   15:20   49.5    77   13.2   270     19.3   934.1    0.00     599    59.8
  86   15:30   49.4    78   10.5   262     18.0   934.0    0.00     571    60.0
  86   15:40   49.4    78    9.0   247     15.0   934.0    0.00     547    60.2
  86   15:50   49.9    77    6.0   229     12.8   934.1    0.00     519    60.4
  86   16:00   49.7    78    7.5   246     10.8   934.0    0.00     490    60.5
  86   16:10   49.8    77    5.7   228      9.8   933.9    0.00     456    60.7
  86   16:20   50.7    75    5.4   256      8.5   933.9    0.00     421    60.8
  86   16:30   50.3    75    8.5   257     13.5   933.9    0.00     382    61.0
  86   16:40   50.0    76    8.7   252     13.5   933.9    0.00     346    61.0
  86   16:50   49.6    77    8.0   258     12.6   933.9    0.00     307    61.0
  86   17:00   49.0    78    7.1   258     12.1   933.8    0.00     266    61.1
  86   17:10   48.4    79    7.6   259     11.8   933.9    0.00     231    61.0
  86   17:20   48.3    80    7.4   265     11.5   934.0    0.00     195    61.0
  86   17:30   48.6    79    5.1   264      8.6   934.0    0.00     160    60.9
  86   17:40   48.3    79    7.0   263     10.7   934.0    0.00     129    60.8
  86   17:50   47.4    81    7.5   263     11.0   933.9    0.00      99    60.7
  86   18:00   46.7    83    5.6   254      8.6   933.8    0.00      74    60.6
  86   18:10   46.1    84    5.0   254      7.7   933.8    0.00      47    60.5
  86   18:20   45.5    86    5.0   249      8.3   934.0    0.00      26    60.4
  86   18:30   44.4    87    4.2   251      5.8   934.1    0.00       7    60.2
  86   18:40   43.8    86    5.1   259      7.7   934.0    0.00       2    60.0
  86   18:50   43.6    85    5.7   283      9.3   934.1    0.00       0    59.9
  86   19:00   43.0    89    7.7   285     11.2   934.2    0.00       0    59.7
  86   19:10   42.5    92    9.1   285     14.6   934.2    0.00       0    59.5
  86   19:20   43.1    85   11.6   288     16.0   934.3    0.00       0    59.3
  86   19:30   42.9    88    7.7   281     13.6   934.4    0.00       0    59.0
  86   19:40   42.1    90    7.4   279     12.9   934.4    0.00       0    58.9
  86   19:50   42.5    86    8.1   278     12.2   934.5    0.00       0    58.6
  86   20:00   42.3    86    3.6   297      9.6   934.4    0.00       0    58.4
  86   20:10   42.5    87    7.6   280     11.6   934.4    0.00       0    58.2
  86   20:20   42.9    85    6.5   279     12.3   934.4    0.00       0    58.0
  86   20:30   42.6    86    8.9   276     12.3   934.4    0.00       0    57.7
  86   20:40   42.8    84    7.9   273     12.4   934.6    0.00       0    57.5
  86   20:50   42.8    83    7.2   284     11.0   934.8    0.00       0    57.3
  86   21:00   43.1    82    8.4   284     13.8   934.8    0.00       0    57.1
  86   21:10   43.0    83    9.6   288     13.7   935.0    0.00       0    56.9
  86   21:20   42.6    84    8.5   284     13.1   935.0    0.00       0    56.8
  86   21:30   42.7    84    8.2   286     14.0   934.9    0.00       0    56.6
  86   21:40   43.0    82    7.6   289     13.7   934.8    0.00       0    56.4
  86   21:50   43.5    77    8.4   281     12.9   934.7    0.00       0    56.2
  86   22:00   44.0    74    9.6   274     13.7   934.6    0.00       0    56.0
  86   22:10   44.6    72    9.2   270     14.6   934.7    0.00       0    55.7
  86   22:20   44.4    72    8.7   278     13.4   934.7    0.00       0    55.6
  86   22:30   44.6    69    6.9   291     10.4   934.7    0.00       0    55.4
  86   22:40   45.4    65    8.1   274     11.9   934.6    0.00       0    55.3
  86   22:50   45.2    67    7.7   272     12.4   934.6    0.00       0    55.1
  86   23:00   45.0    67    6.3   272      9.6   934.6    0.00       0    54.9
  86   23:10   45.2    66    9.5   272     14.0   934.6    0.00       0    54.7
  86   23:20   44.8    68    7.9   294     13.5   934.8    0.00       0    54.6
  86   23:30   45.1    67    8.3   293     11.8   934.7    0.00       0    54.5
  86   23:40   44.8    69    7.5   285     11.2   934.6    0.00       0    54.4
  86   23:50   44.8    67    8.9   287     12.1   934.5    0.00       0    54.2
  87    0:00   45.2    65    6.5   300     10.1   934.4    0.00       0    54.1
  87    0:10   45.1    64    7.7   299     12.1   934.3    0.00       0    54.0
  87    0:20   45.9    61    8.3   292     12.3   934.3    0.00       0    53.8
  87    0:30   46.0    61    7.8   283     12.1   934.3    0.00       0    53.7
  87    0:40   45.6    63    9.0   287     13.7   934.2    0.00       0    53.6
  87    0:50   46.0    62    8.6   295     14.5   934.2    0.00       0    53.5
  87    1:00   46.2    62   10.0   284     17.5   934.3    0.00       0    53.3
  87    1:10   46.1    62    6.5   299     10.2   934.3    0.00       0    53.2
  87    1:20   46.8    60    6.1   281     10.7   934.1    0.00       0    53.1
  87    1:30   46.0    63    9.5   288     13.4   934.0    0.00       0    53.0
  87    1:40   46.1    63   10.2   290     16.5   934.1    0.00       0    52.9
  87    1:50   46.3    63    9.5   288     11.8   933.9    0.00       0    52.8
  87    2:00   46.6    62    8.6   285     12.9   933.8    0.00       0    52.6
  87    2:10   46.4    62   10.3   295     13.4   933.8    0.00       0    52.6
  87    2:20   46.3    62    8.6   290     13.2   933.7    0.00       0    52.5
  87    2:30   46.5    61    8.5   285     11.6   933.6    0.00       0    52.4
  87    2:40   47.0    59    7.8   276     11.5   933.4    0.00       0    52.3
  87    2:50   46.7    60    8.4   288     11.0   933.3    0.00       0    52.2
  87    3:00   47.6    54    6.1   277      9.7   933.2    0.00       0    52.1
  87    3:10   48.1    52    6.1   276      8.9   933.2    0.00       0    51.9
  87    3:20   48.2    50    6.9   278      9.7   933.1    0.00       0    51.8
  87    3:30   48.0    51    7.7   298     11.8   933.3    0.00       0    51.7
  87    3:40   47.2    54    9.4   296     15.8   933.4    0.00       0    51.7
  87    3:50   46.7    58   10.1   288     15.9   933.4    0.00       0    51.6
  87    4:00   46.6    57    9.7   287     13.7   933.6    0.00       0    51.5
  87    4:10   47.7    52    9.3   284     11.6   933.8    0.00       0    51.4
  87    4:20   48.2    50    6.7   290     13.7   933.9    0.00       0    51.4
  87    4:30   49.0    45    6.6   288     13.2   934.0    0.00       0    51.2
  87    4:40   49.7    39    4.7   299      9.7   933.7    0.00       0    51.2
  87    4:50   50.8    34    7.3   287     21.1   933.3    0.00       0    51.0
  87    5:00   50.9    34    8.3   297     16.8   933.3    0.00       0    50.9
  87    5:10   51.8    30    9.2   297     18.2   933.2    0.00       0    50.8
  87    5:20   49.5    43    8.7   281     14.8   933.5    0.00       0    50.7
  87    5:30   47.4    52    8.7   292     13.5   933.8    0.00       0    50.8
  87    5:40   47.3    49    5.8   324     11.0   933.8    0.00       0    50.7
  87    5:50   50.5    35    6.1   253     19.9   933.7    0.00       1    50.5
  87    6:00   52.5    30    8.4   278     28.6   933.5    0.00       3    50.3
  87    6:10   53.0    28    8.8   340     24.5   933.3    0.00       8    50.1
  87    6:20   51.3    38    9.1   277     21.5   933.8    0.00      15    50.1
  87    6:30   48.4    47    5.4   291     13.1   934.1    0.00      21    50.1
  87    6:40   50.2    40    7.2   295     16.9   933.9    0.00      33    50.1
  87    6:50   51.8    34    8.6   321     19.2   934.1    0.00     137    50.0
  87    7:00   53.6    31    9.1   353     20.3   934.2    0.00     187    49.9
  87    7:10   53.5    31    9.3   315     28.1   934.5    0.00     220    49.9
  87    7:20   53.7    31    9.8   320     18.8   934.6    0.00     220    49.8
  87    7:30   53.3    32   10.5   313     20.5   934.6    0.00     184    49.8
  87    7:40   53.4    33   10.8   322     22.5   934.7    0.00     308    49.9
  87    7:50   53.8    33   11.6   322     30.9   934.6    0.00     367    49.9
  87    8:00   54.2    32   12.7   339     25.6   934.5    0.00     376    49.9
  87    8:10   54.6    32   13.5   338     27.4   934.4    0.00     466    49.9
  87    8:20   54.8    32   13.3   330     28.9   934.5    0.00     490    50.0
  87    8:30   54.9    30   13.1   345     26.6   934.6    0.00     502    50.1
  87    8:40   55.1    30   14.7   348     31.9   934.6    0.00     544    50.3
  87    8:50   55.6    30   12.0   340     24.3   934.7    0.00     607    50.4
  87    9:00   55.6    30   14.0   329     33.0   934.5    0.00     600    50.6
  87    9:10   55.9    31   10.0   316     19.1   934.8    0.00     647    50.7
  87    9:20   56.3    31   11.2   312     25.9   934.8    0.00     715    50.8
  87    9:30   56.8    31   10.6   324     21.8   934.8    0.00     738    51.1
  87    9:40   57.0    31   10.6   321     22.2   934.9    0.00     747    51.3
  87    9:50   57.8    31    8.9   316     20.1   934.9    0.00     778    51.4
  87   10:00   58.0    32    6.3   316     13.6   934.9    0.00     801    51.6
  87   10:10   58.4    31    6.8   299     17.3   934.8    0.00     824    51.9
  87   10:20   58.6    31    8.3   310     18.8   934.8    0.00     847    52.1
  87   10:30   58.8    32    8.9   303     17.4   934.8    0.00     871    52.4
  87   10:40   58.9    34    7.3   282     15.6   934.7    0.00     687    52.6
  87   10:50   58.4    37    6.7   277     14.3   934.6    0.00     905    52.9
  87   11:00   58.1    40    5.2   261     12.3   934.5    0.00     863    53.2
  87   11:10   58.2    38    5.3   248      9.2   934.4    0.00     909    53.5
  87   11:20   58.3    40    7.5   258     11.2   934.3    0.00     925    53.8
  87   11:30   58.9    39    6.5   258     12.9   934.3    0.00     930    54.1
  87   11:40   58.0    42    9.4   263     13.4   934.1    0.00     935    54.5
  87   11:50   58.0    44    6.7   247     10.8   934.1    0.00     939    54.9
  87   12:00   58.4    44    5.6   237      9.8   934.2    0.00     942    55.2
  87   12:10   58.3    43    6.1   273     12.1   934.1    0.00     943    55.5
  87   12:20   58.2    47    5.7   264      9.1   934.0    0.00     942    55.8
  87   12:30   57.7    54    7.4   264     12.3   934.0    0.00     938    56.1
  87   12:40   56.9    56    7.1   277     11.3   934.0    0.00     933    56.4

Return to Highlands Peak graphs page.


Western Regional Climate Center,wrcc@dri.edu